Time;durP1;ratioP1;P1;durP2;ratioP2;P2;SDS_P1;SDS_P2;PMS_P1;PMS_P2;Temp;Humidity;BMP_temperature;BMP_pressure;BME280_temperature;BME280_humidity;BME280_pressure;Samples;Min_cycle;Max_cycle;Signal;HPM_P1;HPM_P2
2023/06/17 00:01:15;;;;;;;9.23;4.63;;;16.00;69.30;;;;;;4868109;29;20080;-84
2023/06/17 00:03:43;;;;;;;10.15;4.60;;;16.00;69.30;;;;;;4854312;29;20046;-85
2023/06/17 00:06:10;;;;;;;10.02;4.85;;;16.00;69.60;;;;;;4853642;29;20407;-84
2023/06/17 00:08:37;;;;;;;8.17;4.70;;;16.00;69.70;;;;;;4854864;29;20038;-84
2023/06/17 00:11:05;;;;;;;13.07;4.82;;;15.80;70.00;;;;;;4861519;29;20051;-84
2023/06/17 00:13:32;;;;;;;8.95;4.68;;;15.80;70.10;;;;;;4853074;29;20053;-84
2023/06/17 00:16:00;;;;;;;8.82;4.63;;;15.80;69.90;;;;;;4838456;29;20077;-85
2023/06/17 00:18:28;;;;;;;8.85;4.68;;;15.70;69.90;;;;;;4869306;29;20045;-84
2023/06/17 00:20:57;;;;;;;10.50;5.40;;;15.80;70.20;;;;;;4866338;29;20150;-85
2023/06/17 00:23:25;;;;;;;9.07;5.03;;;15.80;70.20;;;;;;4855159;29;20052;-84
2023/06/17 00:25:52;;;;;;;10.63;4.38;;;15.70;70.40;;;;;;4853699;29;20280;-85
2023/06/17 00:28:19;;;;;;;9.30;4.85;;;15.80;70.30;;;;;;4852292;29;20109;-85
2023/06/17 00:30:46;;;;;;;8.50;4.50;;;15.80;70.20;;;;;;4851966;29;20053;-84
2023/06/17 00:33:15;;;;;;;7.80;4.70;;;15.80;70.30;;;;;;4853227;29;20054;-85
2023/06/17 00:35:43;;;;;;;8.50;4.75;;;15.70;70.20;;;;;;4836124;29;20053;-85
2023/06/17 00:38:10;;;;;;;9.52;4.72;;;15.70;69.70;;;;;;4848846;29;20382;-85
2023/06/17 00:40:37;;;;;;;8.48;4.50;;;15.70;70.00;;;;;;4848608;29;20048;-85
2023/06/17 00:43:04;;;;;;;8.52;4.75;;;15.60;70.10;;;;;;4871780;29;20076;-85
2023/06/17 00:45:38;;;;;;;8.57;4.70;;;15.60;70.30;;;;;;4868234;29;20124;-85
2023/06/17 00:48:08;;;;;;;8.52;4.63;;;15.60;70.30;;;;;;4851465;29;20051;-84
2023/06/17 00:50:36;;;;;;;7.88;4.35;;;15.60;70.70;;;;;;4866014;29;20048;-85
2023/06/17 00:53:05;;;;;;;9.48;4.90;;;15.50;70.70;;;;;;4853779;29;20396;-85
2023/06/17 00:55:33;;;;;;;8.77;4.70;;;15.50;70.30;;;;;;4861838;29;20124;-85
2023/06/17 00:58:01;;;;;;;8.03;4.47;;;15.50;70.40;;;;;;4836193;29;20072;-84
2023/06/17 01:00:28;;;;;;;8.68;4.63;;;15.50;70.70;;;;;;4853628;29;20050;-84
2023/06/17 01:02:56;;;;;;;8.73;4.50;;;15.50;70.60;;;;;;4871032;29;20136;-85
2023/06/17 01:05:25;;;;;;;10.05;6.07;;;15.40;70.60;;;;;;4854336;29;20054;-84
2023/06/17 01:08:25;;;;;;;9.55;4.97;;;15.30;70.70;;;;;;4837081;29;20069;-84
2023/06/17 01:11:11;;;;;;;11.83;5.03;;;15.40;70.80;;;;;;4865643;29;20065;-85
2023/06/17 01:13:42;;;;;;;8.90;5.05;;;15.40;70.60;;;;;;4848878;29;20061;-84
2023/06/17 01:16:10;;;;;;;12.15;4.53;;;15.40;70.90;;;;;;4851665;29;20045;-85
2023/06/17 01:18:40;;;;;;;8.63;4.40;;;15.40;71.00;;;;;;4851342;29;20053;-84
2023/06/17 01:21:08;;;;;;;9.38;5.03;;;15.40;70.90;;;;;;4864811;29;20514;-85
2023/06/17 01:23:37;;;;;;;9.90;5.10;;;15.30;70.90;;;;;;4864826;29;20389;-84
2023/06/17 01:26:07;;;;;;;8.93;5.32;;;15.30;71.10;;;;;;4848922;29;20512;-85
2023/06/17 01:28:38;;;;;;;9.40;5.00;;;15.20;71.10;;;;;;4866190;29;20109;-84
2023/06/17 01:31:05;;;;;;;11.68;5.05;;;15.10;71.30;;;;;;4846611;29;20042;-84
2023/06/17 01:33:32;;;;;;;9.43;4.63;;;15.00;71.40;;;;;;4869562;29;20041;-84
2023/06/17 01:36:14;;;;;;;11.27;4.80;;;15.00;71.30;;;;;;4834585;29;20049;-84
2023/06/17 01:38:46;;;;;;;9.77;4.95;;;15.00;71.40;;;;;;4848329;29;20053;-83
2023/06/17 01:41:21;;;;;;;8.57;4.63;;;15.00;71.40;;;;;;4851700;29;20381;-84
2023/06/17 01:43:49;;;;;;;7.50;4.22;;;15.00;71.40;;;;;;4849193;29;20523;-84
2023/06/17 01:46:17;;;;;;;10.05;4.78;;;15.00;71.50;;;;;;4837618;29;20074;-87
2023/06/17 01:48:44;;;;;;;9.50;5.33;;;15.00;71.60;;;;;;4854054;29;20068;-84
2023/06/17 01:51:12;;;;;;;8.45;4.80;;;15.00;71.90;;;;;;4833508;29;20037;-83
2023/06/17 01:53:39;;;;;;;9.73;5.20;;;15.00;72.20;;;;;;4868005;29;20045;-84
2023/06/17 01:56:06;;;;;;;9.85;5.32;;;15.00;72.30;;;;;;4834537;29;20420;-83
2023/06/17 01:58:35;;;;;;;11.60;6.60;;;15.00;72.40;;;;;;4865049;29;20041;-84
2023/06/17 02:01:02;;;;;;;8.43;5.10;;;15.00;72.40;;;;;;4832812;29;20137;-84
2023/06/17 02:03:30;;;;;;;9.32;5.53;;;15.00;72.50;;;;;;4852737;29;20052;-84
2023/06/17 02:05:57;;;;;;;9.90;5.30;;;14.90;72.80;;;;;;4834248;29;20484;-84
2023/06/17 02:08:25;;;;;;;12.00;5.93;;;14.90;73.00;;;;;;4852104;29;20074;-84
2023/06/17 02:10:53;;;;;;;11.18;6.30;;;14.90;73.10;;;;;;4835003;29;20047;-84
2023/06/17 02:13:20;;;;;;;11.63;6.70;;;14.90;73.20;;;;;;4850412;29;20057;-84
2023/06/17 02:15:47;;;;;;;11.45;6.70;;;15.00;73.40;;;;;;4849059;29;20045;-84
2023/06/17 02:18:14;;;;;;;13.85;7.38;;;15.00;73.60;;;;;;4849143;29;20069;-85
2023/06/17 02:20:44;;;;;;;12.63;6.40;;;15.10;73.40;;;;;;4834509;29;20500;-84
2023/06/17 02:23:11;;;;;;;11.50;6.63;;;15.20;73.60;;;;;;4865954;29;20132;-84
2023/06/17 02:25:41;;;;;;;13.37;7.27;;;15.20;74.00;;;;;;4852450;29;20041;-85
2023/06/17 02:28:08;;;;;;;12.52;6.72;;;15.30;73.90;;;;;;4836163;29;20041;-84
2023/06/17 02:30:35;;;;;;;10.65;6.38;;;15.30;74.10;;;;;;4848403;29;20053;-84
2023/06/17 02:33:03;;;;;;;13.70;7.55;;;15.40;74.40;;;;;;4864119;29;20053;-84
2023/06/17 02:35:30;;;;;;;12.90;6.85;;;15.50;74.20;;;;;;4849240;29;20046;-85
2023/06/17 02:37:58;;;;;;;12.17;6.60;;;15.50;74.00;;;;;;4847524;29;20128;-84
2023/06/17 02:40:26;;;;;;;11.10;6.40;;;15.50;74.00;;;;;;4865815;29;20056;-85
2023/06/17 02:42:53;;;;;;;10.45;5.30;;;15.50;74.40;;;;;;4858792;29;20061;-84
2023/06/17 02:45:20;;;;;;;12.27;7.00;;;15.50;74.50;;;;;;4865654;29;20042;-85
2023/06/17 02:47:47;;;;;;;15.10;7.55;;;15.50;74.10;;;;;;4834359;29;20519;-84
2023/06/17 02:50:14;;;;;;;10.60;6.57;;;15.50;74.00;;;;;;4850300;29;20050;-84
2023/06/17 02:52:41;;;;;;;13.00;6.35;;;15.50;74.50;;;;;;4852486;29;20073;-84
2023/06/17 02:55:08;;;;;;;11.65;6.00;;;15.50;75.00;;;;;;4863965;29;20050;-85
2023/06/17 02:57:35;;;;;;;11.20;6.35;;;15.50;75.00;;;;;;4850357;29;20052;-85
2023/06/17 03:00:08;;;;;;;13.13;7.18;;;15.60;74.40;;;;;;4849720;29;20057;-84
2023/06/17 03:02:36;;;;;;;12.00;6.53;;;15.60;74.50;;;;;;4865954;29;20041;-85
2023/06/17 03:05:06;;;;;;;9.45;5.68;;;15.70;74.40;;;;;;4850234;29;20401;-85
2023/06/17 03:07:36;;;;;;;11.38;6.82;;;15.80;74.40;;;;;;4832700;29;20045;-85
2023/06/17 03:10:03;;;;;;;12.43;6.85;;;15.70;74.70;;;;;;4849327;29;20038;-85
2023/06/17 03:12:36;;;;;;;12.30;7.68;;;15.80;74.70;;;;;;4861068;29;20052;-85
2023/06/17 03:15:04;;;;;;;15.43;7.67;;;15.80;74.40;;;;;;4848212;29;20050;-84
2023/06/17 03:17:31;;;;;;;12.55;7.68;;;15.80;74.20;;;;;;4849665;29;20045;-85
2023/06/17 03:19:59;;;;;;;13.70;8.18;;;15.90;74.30;;;;;;4827479;29;20046;-84
2023/06/17 03:22:26;;;;;;;13.50;7.70;;;15.90;73.90;;;;;;4851770;29;20042;-84
2023/06/17 03:24:53;;;;;;;15.63;8.95;;;16.00;73.90;;;;;;4850111;29;20076;-84
2023/06/17 03:27:20;;;;;;;14.30;8.40;;;16.00;73.80;;;;;;4855256;29;20080;-85
2023/06/17 03:29:49;;;;;;;15.25;8.63;;;16.00;74.30;;;;;;4866832;29;20052;-84
2023/06/17 03:32:16;;;;;;;13.95;8.32;;;16.10;74.40;;;;;;4846956;29;20528;-84
2023/06/17 03:34:44;;;;;;;14.70;8.95;;;16.10;74.50;;;;;;4848903;29;20045;-85
2023/06/17 03:37:12;;;;;;;15.75;9.68;;;16.10;74.30;;;;;;4848984;29;20386;-84
2023/06/17 03:39:39;;;;;;;14.03;8.73;;;16.20;74.20;;;;;;4866683;29;20053;-85
2023/06/17 03:42:07;;;;;;;15.63;9.52;;;16.20;74.10;;;;;;4866765;29;20051;-84
2023/06/17 03:44:34;;;;;;;17.92;10.80;;;16.20;74.20;;;;;;4870330;29;20073;-85
2023/06/17 03:47:02;;;;;;;18.17;10.75;;;16.10;74.90;;;;;;4854702;29;20113;-84
2023/06/17 03:49:30;;;;;;;16.73;10.40;;;16.10;75.30;;;;;;4868881;29;20504;-84
2023/06/17 03:51:58;;;;;;;16.43;10.20;;;16.00;75.80;;;;;;4838682;29;20140;-84
2023/06/17 03:54:26;;;;;;;17.75;10.80;;;16.10;75.40;;;;;;4852576;29;20056;-84
2023/06/17 03:56:55;;;;;;;18.10;11.68;;;16.10;75.40;;;;;;4835223;29;20104;-85
2023/06/17 03:59:22;;;;;;;18.30;10.38;;;16.20;75.30;;;;;;4836825;29;21183;-84
2023/06/17 04:01:49;;;;;;;19.33;11.27;;;16.20;75.20;;;;;;4851429;29;20045;-85
2023/06/17 04:04:16;;;;;;;20.07;11.30;;;16.30;75.30;;;;;;4838609;29;20527;-84
2023/06/17 04:06:44;;;;;;;16.90;10.77;;;16.40;75.30;;;;;;4849543;29;20129;-84
2023/06/17 04:09:12;;;;;;;17.75;11.43;;;16.40;74.90;;;;;;4837017;29;20046;-85
2023/06/17 04:11:40;;;;;;;19.27;11.35;;;16.50;74.60;;;;;;4834846;29;20449;-85
2023/06/17 04:14:10;;;;;;;19.13;10.63;;;16.50;74.40;;;;;;4869988;29;20471;-83
2023/06/17 04:16:37;;;;;;;18.83;10.70;;;16.60;74.70;;;;;;4852519;29;20500;-84
2023/06/17 04:19:04;;;;;;;17.27;11.02;;;16.60;75.10;;;;;;4867052;29;20505;-84
2023/06/17 04:21:31;;;;;;;21.23;11.98;;;16.60;75.00;;;;;;4849791;29;20096;-85
2023/06/17 04:23:58;;;;;;;18.30;11.18;;;16.60;74.80;;;;;;4854340;29;20426;-84
2023/06/17 04:26:25;;;;;;;18.23;11.05;;;16.60;74.70;;;;;;4851973;29;20073;-84
2023/06/17 04:28:53;;;;;;;17.60;10.30;;;16.60;74.70;;;;;;4851495;29;20045;-84
2023/06/17 04:31:20;;;;;;;17.25;10.40;;;16.60;74.70;;;;;;4866589;29;20053;-84
2023/06/17 04:33:48;;;;;;;16.48;10.00;;;16.70;74.70;;;;;;4839696;29;20052;-84
2023/06/17 04:36:17;;;;;;;17.63;10.65;;;16.70;74.40;;;;;;4849496;29;20053;-84
2023/06/17 04:38:47;;;;;;;16.95;9.52;;;16.70;74.40;;;;;;4851110;29;20097;-85
2023/06/17 04:41:15;;;;;;;14.03;9.40;;;16.80;74.40;;;;;;4862091;29;20102;-85
2023/06/17 04:43:48;;;;;;;18.50;9.50;;;16.80;74.20;;;;;;4851080;29;20125;-85
2023/06/17 04:46:17;;;;;;;14.13;8.88;;;16.80;74.20;;;;;;4867099;29;20094;-85
2023/06/17 04:48:45;;;;;;;16.80;9.70;;;16.60;74.50;;;;;;4851704;29;20512;-85
2023/06/17 04:51:12;;;;;;;12.43;8.00;;;16.60;74.80;;;;;;4853613;29;20045;-85
2023/06/17 04:53:40;;;;;;;14.07;8.70;;;16.60;74.40;;;;;;4850555;29;20629;-84
2023/06/17 04:56:07;;;;;;;14.35;7.93;;;16.60;74.60;;;;;;4851533;29;21018;-84
2023/06/17 04:58:35;;;;;;;15.10;8.52;;;16.60;74.60;;;;;;4851074;29;20273;-84
2023/06/17 05:01:13;;;;;;;13.77;8.48;;;16.70;74.50;;;;;;4868853;29;20397;-85
2023/06/17 05:03:40;;;;;;;14.48;8.18;;;16.70;74.00;;;;;;4852633;29;20137;-85
2023/06/17 05:06:08;;;;;;;12.47;8.37;;;16.80;74.10;;;;;;4864456;29;20042;-85
2023/06/17 05:08:35;;;;;;;16.40;8.35;;;16.70;74.10;;;;;;4851579;29;20041;-85
2023/06/17 05:11:02;;;;;;;14.80;8.40;;;16.80;74.40;;;;;;4852387;29;20054;-84
2023/06/17 05:13:31;;;;;;;13.55;8.35;;;16.80;74.40;;;;;;4852596;29;20059;-85
2023/06/17 05:15:59;;;;;;;13.75;8.45;;;16.70;74.70;;;;;;4864908;29;20568;-84
2023/06/17 05:18:28;;;;;;;12.57;8.33;;;16.70;74.60;;;;;;4848729;29;20041;-85
2023/06/17 05:20:57;;;;;;;13.18;8.05;;;16.70;75.00;;;;;;4869540;29;20096;-84
2023/06/17 05:23:24;;;;;;;14.00;8.15;;;16.60;74.80;;;;;;4835372;29;20421;-84
2023/06/17 05:25:51;;;;;;;14.00;8.48;;;16.60;74.90;;;;;;4838663;29;20046;-85
2023/06/17 05:28:19;;;;;;;14.60;9.52;;;16.60;75.20;;;;;;4849470;29;20045;-84
2023/06/17 05:30:46;;;;;;;12.17;7.97;;;16.60;75.10;;;;;;4846955;29;20048;-84
2023/06/17 05:33:16;;;;;;;16.35;8.40;;;16.60;74.80;;;;;;4867290;29;20053;-84
2023/06/17 05:35:43;;;;;;;14.55;8.98;;;16.50;75.10;;;;;;4867646;29;20088;-85
2023/06/17 05:38:10;;;;;;;15.25;8.80;;;16.60;75.10;;;;;;4849371;29;20144;-84
2023/06/17 05:40:37;;;;;;;14.10;9.35;;;16.60;75.10;;;;;;4851540;29;20106;-85
2023/06/17 05:43:04;;;;;;;17.43;9.50;;;16.70;75.00;;;;;;4848013;29;20045;-85
2023/06/17 05:45:31;;;;;;;13.52;8.70;;;16.80;74.30;;;;;;4852507;29;20041;-85
2023/06/17 05:47:59;;;;;;;13.13;8.63;;;16.80;74.20;;;;;;4846134;29;20389;-84
2023/06/17 05:50:28;;;;;;;13.88;9.07;;;16.90;74.20;;;;;;4848964;29;20049;-84
2023/06/17 05:52:57;;;;;;;14.32;9.48;;;16.90;74.80;;;;;;4851071;29;20130;-85
2023/06/17 05:55:25;;;;;;;15.57;9.50;;;17.00;74.50;;;;;;4834422;29;20045;-85
2023/06/17 05:57:52;;;;;;;16.40;9.50;;;17.10;74.30;;;;;;4869961;29;20049;-85
2023/06/17 06:00:20;;;;;;;15.50;9.18;;;17.10;73.90;;;;;;4848445;29;20547;-87
2023/06/17 06:02:49;;;;;;;15.43;9.18;;;17.20;73.40;;;;;;4840229;29;20105;-87
2023/06/17 06:05:17;;;;;;;15.88;8.80;;;17.10;72.90;;;;;;4856931;29;20049;-86
2023/06/17 06:07:44;;;;;;;13.53;8.20;;;17.10;73.20;;;;;;4867310;29;20065;-86
2023/06/17 06:10:12;;;;;;;13.20;8.90;;;17.10;73.30;;;;;;4852387;29;20051;-87
2023/06/17 06:12:43;;;;;;;14.30;8.90;;;17.20;73.30;;;;;;4860578;29;20056;-88
2023/06/17 06:15:10;;;;;;;14.43;9.40;;;17.10;72.90;;;;;;4856715;29;20094;-88
2023/06/17 06:17:37;;;;;;;15.30;9.55;;;17.10;73.30;;;;;;4852459;29;20045;-85
2023/06/17 06:20:05;;;;;;;16.10;9.50;;;17.10;73.40;;;;;;4854768;29;20049;-87
2023/06/17 06:22:33;;;;;;;13.07;8.50;;;17.20;73.50;;;;;;4850698;29;20041;-86
2023/06/17 06:25:00;;;;;;;16.17;9.20;;;17.30;73.00;;;;;;4859653;29;20041;-86
2023/06/17 06:27:28;;;;;;;16.50;9.70;;;17.40;72.80;;;;;;4851480;29;20057;-88
2023/06/17 06:29:56;;;;;;;25.35;9.52;;;17.50;72.70;;;;;;4869282;29;20053;-88
2023/06/17 06:32:23;;;;;;;12.57;8.37;;;17.50;72.50;;;;;;4863891;29;20046;-88
2023/06/17 06:34:51;;;;;;;16.35;9.38;;;17.50;72.40;;;;;;4849346;29;20087;-88
2023/06/17 06:37:22;;;;;;;16.92;9.40;;;17.60;72.20;;;;;;4851361;29;20072;-87
2023/06/17 06:39:49;;;;;;;13.55;9.05;;;17.60;71.90;;;;;;4851930;29;20052;-89
2023/06/17 06:42:16;;;;;;;16.35;9.80;;;17.60;72.00;;;;;;4854631;29;20049;-89
2023/06/17 06:44:49;;;;;;;13.60;8.87;;;17.60;71.70;;;;;;4852003;29;20104;-89
2023/06/17 06:47:18;;;;;;;13.88;9.13;;;17.50;71.80;;;;;;4837924;29;20077;-89
2023/06/17 06:49:46;;;;;;;15.38;9.40;;;17.60;72.20;;;;;;4853680;29;20045;-89
2023/06/17 06:52:13;;;;;;;14.48;9.48;;;17.60;72.00;;;;;;4861067;29;20485;-88
2023/06/17 06:54:42;;;;;;;14.18;8.82;;;17.60;71.20;;;;;;4853191;29;20077;-88
2023/06/17 06:57:09;;;;;;;14.23;8.77;;;17.70;71.20;;;;;;4869166;29;20045;-88
2023/06/17 06:59:36;;;;;;;13.65;9.30;;;17.90;71.30;;;;;;4864736;29;20197;-88
2023/06/17 07:02:03;;;;;;;13.43;8.82;;;18.00;70.60;;;;;;4850252;29;20185;-88
2023/06/17 07:04:31;;;;;;;14.07;8.93;;;18.00;70.40;;;;;;4870105;29;20073;-88
2023/06/17 07:07:02;;;;;;;13.48;9.65;;;18.00;70.30;;;;;;4851483;29;20041;-88
2023/06/17 07:09:34;;;;;;;12.87;8.40;;;18.00;70.00;;;;;;4831753;29;20124;-88
2023/06/17 07:12:01;;;;;;;14.70;9.20;;;18.00;70.80;;;;;;4855130;29;20473;-88
2023/06/17 07:14:30;;;;;;;13.20;8.80;;;18.00;70.60;;;;;;4869141;29;20158;-88
2023/06/17 07:16:58;;;;;;;13.45;8.88;;;17.90;70.50;;;;;;4863146;29;20060;-88
2023/06/17 07:19:26;;;;;;;10.85;7.80;;;17.80;71.10;;;;;;4851160;29;20102;-88
2023/06/17 07:21:54;;;;;;;13.27;8.80;;;17.80;71.40;;;;;;4856706;29;20144;-88
2023/06/17 07:24:22;;;;;;;12.48;9.23;;;17.70;71.00;;;;;;4872760;29;20069;-88
2023/06/17 07:26:49;;;;;;;14.75;9.23;;;17.80;70.90;;;;;;4870248;29;20101;-88
2023/06/17 07:29:16;;;;;;;13.73;9.00;;;17.80;70.60;;;;;;4837497;29;20074;-88
2023/06/17 07:31:43;;;;;;;12.13;8.70;;;17.80;70.80;;;;;;4870003;29;20045;-88
2023/06/17 07:34:10;;;;;;;13.23;9.07;;;17.90;70.90;;;;;;4863731;29;20093;-88
2023/06/17 07:36:37;;;;;;;11.90;8.23;;;18.00;71.00;;;;;;4855115;29;20523;-88
2023/06/17 07:39:05;;;;;;;13.68;8.90;;;18.10;70.30;;;;;;4853180;29;20041;-88
2023/06/17 07:41:32;;;;;;;14.23;8.15;;;18.30;69.70;;;;;;4857117;29;20532;-88
2023/06/17 07:43:59;;;;;;;11.10;7.57;;;18.50;69.30;;;;;;4871679;29;20428;-88
2023/06/17 07:46:26;;;;;;;14.27;9.00;;;18.60;68.50;;;;;;4855988;29;20042;-88
2023/06/17 07:48:53;;;;;;;12.48;7.13;;;18.60;68.10;;;;;;4874647;29;20045;-87
2023/06/17 07:51:21;;;;;;;13.25;7.47;;;18.60;68.60;;;;;;4863173;29;20081;-88
2023/06/17 07:53:48;;;;;;;12.75;7.88;;;18.70;69.00;;;;;;4839680;29;20041;-88
2023/06/17 07:56:18;;;;;;;12.13;7.90;;;18.80;68.60;;;;;;4854844;29;20136;-87
2023/06/17 07:58:46;;;;;;;13.00;8.03;;;18.90;68.30;;;;;;4847902;29;20169;-88
2023/06/17 08:01:13;;;;;;;13.35;8.68;;;18.90;68.10;;;;;;4867351;29;20064;-88
2023/06/17 08:03:40;;;;;;;11.02;6.90;;;19.00;68.00;;;;;;4854146;29;20045;-88
2023/06/17 08:06:08;;;;;;;10.65;7.68;;;19.00;67.50;;;;;;4840384;29;20109;-88
2023/06/17 08:08:35;;;;;;;10.30;7.32;;;19.10;67.10;;;;;;4834031;29;20102;-88
2023/06/17 08:11:04;;;;;;;11.10;7.03;;;19.10;66.10;;;;;;4857356;29;20145;-88
2023/06/17 08:13:31;;;;;;;11.23;7.43;;;19.10;66.10;;;;;;4854214;29;20141;-88
2023/06/17 08:15:59;;;;;;;10.98;7.55;;;19.40;66.40;;;;;;4838720;29;20069;-88
2023/06/17 08:18:26;;;;;;;10.70;6.97;;;19.70;64.60;;;;;;4854909;29;20057;-88
2023/06/17 08:20:53;;;;;;;10.90;7.30;;;19.80;64.70;;;;;;4874856;29;20132;-88
2023/06/17 08:23:20;;;;;;;11.13;7.10;;;20.00;64.60;;;;;;4851130;29;20057;-88
2023/06/17 08:25:49;;;;;;;10.07;6.85;;;20.20;63.90;;;;;;4868995;29;20037;-88
2023/06/17 08:28:16;;;;;;;9.60;7.10;;;20.40;63.80;;;;;;4839906;29;20110;-88
2023/06/17 08:30:43;;;;;;;12.95;8.75;;;20.20;64.10;;;;;;4854961;29;20397;-89
2023/06/17 08:33:10;;;;;;;11.55;7.20;;;20.00;64.50;;;;;;4852517;29;20049;-88
2023/06/17 08:35:37;;;;;;;11.97;7.43;;;20.00;64.30;;;;;;4855053;29;20075;-88
2023/06/17 08:38:05;;;;;;;11.77;7.50;;;20.20;64.40;;;;;;4871635;29;20053;-88
2023/06/17 08:40:35;;;;;;;10.98;7.20;;;20.30;63.70;;;;;;4852902;29;20046;-89
2023/06/17 08:43:06;;;;;;;10.77;6.90;;;20.60;64.50;;;;;;4857296;29;20098;-89
2023/06/17 08:45:34;;;;;;;9.63;6.22;;;20.80;62.20;;;;;;4850015;29;20041;-88
2023/06/17 08:48:05;;;;;;;8.63;5.97;;;21.10;61.00;;;;;;4852053;29;20101;-89
2023/06/17 08:50:33;;;;;;;10.50;5.68;;;21.30;58.80;;;;;;4853043;29;20074;-88
2023/06/17 08:53:02;;;;;;;10.98;6.25;;;21.40;58.50;;;;;;4851955;29;20465;-88
2023/06/17 08:55:29;;;;;;;9.85;6.13;;;21.50;59.20;;;;;;4862466;29;20412;-89
2023/06/17 08:57:57;;;;;;;10.10;6.15;;;21.90;59.20;;;;;;4863931;29;20045;-88
2023/06/17 09:00:24;;;;;;;9.53;6.33;;;22.10;58.70;;;;;;4844284;29;20058;-89
2023/06/17 09:02:54;;;;;;;9.88;5.93;;;22.30;58.00;;;;;;4846884;29;20454;-89
2023/06/17 09:05:21;;;;;;;9.05;5.60;;;22.40;55.50;;;;;;4852654;29;20050;-89
2023/06/17 09:07:48;;;;;;;8.50;6.10;;;22.50;54.80;;;;;;4872306;29;20519;-89
2023/06/17 09:10:18;;;;;;;10.07;5.95;;;22.20;55.80;;;;;;4851311;29;20049;-89
2023/06/17 09:12:46;;;;;;;10.23;6.70;;;21.80;56.20;;;;;;4850999;29;20049;-89
2023/06/17 09:15:17;;;;;;;11.15;6.00;;;21.50;57.60;;;;;;4868605;29;20052;-89
2023/06/17 09:17:45;;;;;;;9.65;6.05;;;21.10;58.40;;;;;;4850906;29;20049;-89
2023/06/17 09:20:14;;;;;;;10.43;5.95;;;20.90;58.60;;;;;;4836988;29;20051;-88
2023/06/17 09:22:47;;;;;;;9.77;6.95;;;20.70;59.00;;;;;;4866371;29;20453;-88
2023/06/17 09:25:15;;;;;;;10.63;7.33;;;20.60;59.30;;;;;;4852673;29;20041;-89
2023/06/17 09:27:47;;;;;;;9.80;6.38;;;20.60;59.60;;;;;;4837830;29;20504;-89
2023/06/17 09:30:37;;;;;;;13.52;7.05;;;20.60;60.00;;;;;;4855072;29;20512;-88
2023/06/17 09:33:20;;;;;;;12.02;7.75;;;20.70;60.50;;;;;;4848983;29;20118;-88
2023/06/17 09:35:47;;;;;;;10.75;7.82;;;20.80;61.80;;;;;;4852285;29;20052;-88
2023/06/17 09:38:17;;;;;;;13.63;9.73;;;20.80;60.50;;;;;;4856249;29;20148;-88
2023/06/17 09:40:48;;;;;;;22.30;9.98;;;21.10;60.20;;;;;;4848772;29;20073;-91
2023/06/17 09:43:16;;;;;;;14.07;10.55;;;21.50;59.40;;;;;;4832662;29;20053;-92
2023/06/17 09:45:56;;;;;;;13.30;9.30;;;21.70;58.60;;;;;;4849596;29;20531;-92
2023/06/17 09:48:29;;;;;;;12.60;9.05;;;21.90;57.30;;;;;;4841791;29;20049;-89
2023/06/17 09:50:58;;;;;;;13.40;8.67;;;21.90;57.10;;;;;;4878923;29;20493;-93
2023/06/17 09:53:29;;;;;;;11.43;8.55;;;21.80;56.90;;;;;;4879310;29;20085;-89
2023/06/17 09:55:59;;;;;;;11.50;6.85;;;21.90;57.30;;;;;;4863954;29;20084;-92
2023/06/17 10:17:11;;;;;;;19.52;13.63;;;22.20;55.80;;;;;;5367362;24;20081;-91
2023/06/17 10:19:41;;;;;;;18.63;11.85;;;22.20;57.20;;;;;;4767713;30;20069;-93
2023/06/17 10:22:16;;;;;;;16.77;12.73;;;22.30;56.70;;;;;;4762877;30;20130;-90
2023/06/17 10:24:43;;;;;;;15.90;10.10;;;22.60;55.20;;;;;;4767081;30;20551;-90
2023/06/17 10:27:11;;;;;;;12.70;10.38;;;22.60;54.30;;;;;;4764809;30;20130;-91
2023/06/17 10:29:44;;;;;;;14.77;8.95;;;22.60;54.00;;;;;;4775061;29;20495;-90
2023/06/17 10:32:24;;;;;;;12.27;8.32;;;22.70;54.20;;;;;;4763429;30;20503;-90
2023/06/17 10:35:10;;;;;;;10.73;7.23;;;22.80;53.50;;;;;;4778959;30;20086;-90
2023/06/17 10:37:40;;;;;;;10.27;7.18;;;22.90;50.60;;;;;;4787720;30;20147;-91
2023/06/17 10:40:27;;;;;;;9.85;6.85;;;23.00;50.60;;;;;;4788813;29;20086;-92
2023/06/17 10:43:18;;;;;;;10.98;6.60;;;23.10;54.90;;;;;;4789815;30;20123;-91
2023/06/17 10:45:56;;;;;;;11.55;8.00;;;23.30;51.20;;;;;;4789616;29;20052;-91
2023/06/17 10:48:33;;;;;;;10.80;8.60;;;23.30;51.40;;;;;;4774902;30;20587;-90
2023/06/17 10:51:10;;;;;;;12.90;7.93;;;23.00;52.60;;;;;;4788435;29;20517;-91
2023/06/17 10:53:47;;;;;;;9.63;7.05;;;23.00;54.00;;;;;;4788927;30;20047;-91
2023/06/17 10:56:14;;;;;;;10.15;5.22;;;23.20;53.00;;;;;;4789053;29;20081;-90
2023/06/17 10:58:46;;;;;;;8.65;6.55;;;23.10;51.50;;;;;;4773872;30;20071;-91
2023/06/17 11:01:14;;;;;;;13.47;6.57;;;23.30;51.70;;;;;;4773469;30;20051;-91
2023/06/17 11:03:41;;;;;;;9.77;5.47;;;23.50;49.70;;;;;;4773831;30;20055;-91
2023/06/17 11:06:10;;;;;;;11.25;5.95;;;23.50;49.00;;;;;;4774035;30;20047;-91
2023/06/17 11:08:38;;;;;;;8.23;5.35;;;23.50;50.00;;;;;;4773735;30;20077;-90
2023/06/17 11:11:15;;;;;;;12.50;6.25;;;23.70;50.50;;;;;;4773820;30;20050;-92
2023/06/17 11:13:47;;;;;;;9.70;5.57;;;23.90;49.40;;;;;;4778579;30;20058;-92
2023/06/17 11:16:14;;;;;;;7.55;5.15;;;24.20;49.20;;;;;;4768576;30;20047;-92
2023/06/17 11:18:42;;;;;;;8.15;5.18;;;24.20;49.30;;;;;;4783015;29;20538;-92
2023/06/17 11:21:10;;;;;;;11.98;5.32;;;24.20;49.20;;;;;;4779123;30;20051;-92
2023/06/17 11:23:40;;;;;;;7.85;5.22;;;24.40;49.40;;;;;;4765809;30;20047;-92
2023/06/17 11:26:09;;;;;;;8.80;5.60;;;24.10;47.60;;;;;;4765334;30;20104;-92
2023/06/17 11:28:36;;;;;;;7.93;5.25;;;24.30;47.30;;;;;;4773029;30;20066;-91
2023/06/17 11:31:03;;;;;;;8.30;5.20;;;24.10;48.40;;;;;;4779780;29;20126;-92
2023/06/17 11:33:32;;;;;;;7.05;5.05;;;24.00;47.50;;;;;;4765595;30;20165;-92
2023/06/17 11:36:08;;;;;;;8.57;5.25;;;24.00;48.50;;;;;;4763557;30;20043;-92
2023/06/17 11:38:36;;;;;;;7.70;5.20;;;24.10;47.50;;;;;;4775039;30;20056;-92
2023/06/17 11:41:04;;;;;;;8.07;5.38;;;24.40;48.30;;;;;;4765703;30;20483;-93
2023/06/17 11:43:31;;;;;;;9.32;4.80;;;24.60;46.30;;;;;;4770522;30;20055;-93
2023/06/17 11:45:59;;;;;;;6.75;4.35;;;24.70;46.60;;;;;;4775437;30;20503;-94
2023/06/17 11:48:33;;;;;;;7.68;4.95;;;24.80;47.50;;;;;;4790899;29;20058;-93
2023/06/17 11:51:13;;;;;;;7.17;3.97;;;24.80;45.90;;;;;;4791182;29;20048;-93
2023/06/17 11:53:43;;;;;;;7.57;3.88;;;24.60;45.40;;;;;;4780204;30;20108;-92
2023/06/17 11:56:13;;;;;;;8.27;4.53;;;24.40;45.90;;;;;;4789694;29;20059;-91
2023/06/17 11:58:41;;;;;;;7.78;3.85;;;24.50;45.60;;;;;;4769443;30;20055;-94
2023/06/17 12:01:09;;;;;;;6.30;3.78;;;24.80;45.50;;;;;;4774682;29;20414;-93
2023/06/17 12:03:39;;;;;;;6.40;4.07;;;25.00;44.80;;;;;;4791805;29;20047;-89
2023/06/17 12:06:06;;;;;;;8.65;4.38;;;25.00;44.40;;;;;;4774999;30;20051;-89
2023/06/17 12:08:34;;;;;;;11.98;3.97;;;24.80;45.00;;;;;;4776447;30;20484;-88
2023/06/17 12:11:09;;;;;;;7.30;4.75;;;24.60;45.30;;;;;;4783709;29;20410;-87
2023/06/17 12:13:40;;;;;;;6.32;4.25;;;24.80;47.40;;;;;;4758858;30;20059;-88
2023/06/17 12:16:22;;;;;;;7.10;3.90;;;24.90;46.00;;;;;;4784374;30;20683;-87
2023/06/17 12:18:51;;;;;;;7.30;4.00;;;24.90;45.80;;;;;;4764048;30;20060;-88
2023/06/17 12:21:23;;;;;;;6.82;4.13;;;24.60;46.10;;;;;;4762040;30;20051;-88
2023/06/17 12:23:59;;;;;;;7.53;3.63;;;24.50;47.10;;;;;;4764985;30;20521;-87
2023/06/17 12:26:27;;;;;;;6.43;3.85;;;24.20;44.90;;;;;;4774119;30;20096;-88
2023/06/17 12:28:54;;;;;;;7.30;3.30;;;23.80;45.60;;;;;;4774592;30;20054;-87
2023/06/17 12:31:22;;;;;;;7.47;3.67;;;23.60;47.10;;;;;;4770149;30;20102;-87
2023/06/17 12:33:49;;;;;;;5.60;3.50;;;23.60;46.80;;;;;;4761563;30;20063;-87
2023/06/17 12:36:17;;;;;;;6.20;3.80;;;24.10;46.10;;;;;;4780138;30;20112;-88
2023/06/17 12:38:45;;;;;;;5.15;3.17;;;24.60;46.80;;;;;;4775754;30;20461;-88
2023/06/17 12:41:12;;;;;;;5.87;3.70;;;25.10;44.50;;;;;;4763366;30;20422;-88
2023/06/17 12:43:40;;;;;;;5.70;3.30;;;25.40;43.90;;;;;;4761075;30;20040;-88
2023/06/17 12:46:08;;;;;;;6.25;3.72;;;25.50;42.90;;;;;;4788849;30;20043;-87
2023/06/17 12:48:35;;;;;;;7.38;4.03;;;25.70;44.00;;;;;;4764893;30;20047;-87
2023/06/17 12:51:03;;;;;;;6.20;3.72;;;25.60;43.00;;;;;;4764401;30;20043;-88
2023/06/17 12:53:31;;;;;;;10.60;3.70;;;25.70;43.80;;;;;;4769594;30;20139;-88
2023/06/17 12:55:59;;;;;;;6.95;4.13;;;25.80;44.70;;;;;;4769170;30;20055;-87
2023/06/17 12:58:26;;;;;;;6.95;4.10;;;25.50;43.00;;;;;;4781111;30;20051;-88
2023/06/17 13:00:54;;;;;;;6.85;4.10;;;25.40;43.20;;;;;;4769321;30;20087;-87
2023/06/17 13:03:21;;;;;;;7.35;4.28;;;25.50;43.10;;;;;;4779832;30;20051;-87
2023/06/17 13:05:50;;;;;;;6.10;3.60;;;25.60;45.70;;;;;;4760618;30;20043;-88